Flight Track Log - Related Links

Times and Time Zones

All times are in EDT time to prevent confusion due to time zone crossing. See the UAL139 flight status page for this flight to view local times or setup timezone preferences in your user account.

Time Position Orientation Groundspeed Altitude Reporting Facility
EDT Latitude Longitude Course Direction KTS MPH feet Rate Location/Type
Thu 02:39:16 PM 39.8570 -104.6760 309° West 2 2  Level FlightAware ADS-B
Thu 02:43:59 PM 39.8520 -104.6900 270° West 16 18 561 Level FlightAware ADS-B
Thu 02:44:39 PM 39.8520 -104.6920 270° West 14 16 1,190 Level FlightAware ADS-B
Thu 02:45:05 PM 39.8520 -104.6930 270° West 21 24 1,415 Level FlightAware ADS-B
Thu 02:45:37 PM 39.8520 -104.6940 270° West 11 13 1,613 Level FlightAware ADS-B
Thu 02:46:05 PM 39.8520 -104.6950 270° West 2 2 1,948 Level FlightAware ADS-B
Thu 02:47:04 PM 39.8520 -104.6970 270° West 17 20 2,381 Level FlightAware ADS-B
Thu 02:47:57 PM 39.8580 -104.6970 360° North 40 46 4,478 Level FlightAware ADS-B
Thu 02:48:11 PM 39.8770 -104.6960 North 187 215 5,000 10,125 Climbing FlightAware ADS-B
Thu 02:48:29 PM 39.8943 -104.6960 360° North 208 239 5,400 1,765 Climbing FlightAware ADS-B
Thu 02:48:45 PM 39.9105 -104.6960 360° North 214 246 6,000 2,400 Climbing FlightAware ADS-B
Thu 02:48:49 PM 39.9147 -104.6960 360° North 212 244 6,200 3,000 Climbing FlightAware ADS-B
Thu 02:48:53 PM 39.9181 -104.6970 347° North 211 243 6,400 1,846 Climbing FlightAware ADS-B
Thu 02:49:02 PM 39.9277 -104.6990 351° North 219 252 6,600 720 Climbing FlightAware ADS-B
Thu 02:49:18 PM 39.9437 -104.7030 349° North 242 278 6,700 1,071 Climbing FlightAware ADS-B
Thu 02:49:30 PM 39.9582 -104.7070 348° North 253 291 7,100 1,800 Climbing FlightAware ADS-B
Thu 02:49:38 PM 39.9673 -104.7100 346° North 259 298 7,300 1,364 Climbing FlightAware ADS-B
Thu 02:49:52 PM 39.9842 -104.7140 350° North 273 314 7,600 1,556 Climbing FlightAware ADS-B
Thu 02:50:05 PM 40.0008 -104.7190 347° North 280 322 8,000 2,000 Climbing FlightAware ADS-B
Thu 02:50:22 PM 40.0211 -104.7250 347° North 283 326 8,600 2,200 Climbing FlightAware ADS-B
Thu 02:50:35 PM 40.0381 -104.7300 347° North 287 330 9,100 2,333 Climbing FlightAware ADS-B
Thu 02:50:40 PM 40.0448 -104.7320 347° North 288 331 9,300 2,500 Climbing FlightAware ADS-B
Thu 02:50:47 PM 40.0546 -104.7360 343° North 289 333 9,600 2,471 Climbing FlightAware ADS-B
Thu 02:50:57 PM 40.0669 -104.7410 343° North 292 336 10,000 1,350 Climbing FlightAware ADS-B
Thu 02:51:27 PM 40.1078 -104.7600 340° North 322 371 10,500 1,180 Climbing FlightAware ADS-B
Thu 02:51:58 PM 40.1521 -104.7810 340° North 347 399 11,200 1,742 Climbing FlightAware ADS-B
Thu 02:52:29 PM 40.1995 -104.8030 340° North 354 407 12,300 2,361 Climbing FlightAware ADS-B
Thu 02:52:59 PM 40.2465 -104.8250 340° North 356 410 13,600 2,455 Climbing FlightAware ADS-B
Thu 02:53:35 PM 40.3019 -104.8510 340° North 357 411 15,000 2,273 Climbing FlightAware ADS-B
Thu 02:54:05 PM 40.3495 -104.8730 341° North 362 417 16,100 2,300 Climbing FlightAware ADS-B
Thu 02:54:35 PM 40.3972 -104.8950 341° North 364 419 17,300 2,066 Climbing FlightAware ADS-B
Thu 02:55:06 PM 40.4462 -104.9180 340° North 371 427 18,200 1,810 Climbing FlightAware ADS-B
Thu 02:55:38 PM 40.4996 -104.9430 340° North 380 437 19,200 1,905 Climbing FlightAware ADS-B
Thu 02:56:09 PM 40.5508 -104.9670 340° North 383 441 20,200 1,594 Climbing FlightAware ADS-B
Thu 02:56:42 PM 40.6069 -104.9940 340° North 396 456 20,900 1,610 Climbing FlightAware ADS-B
Thu 02:57:31 PM 40.6920 -105.0340 340° North 405 466 22,400 1,759 Climbing FlightAware ADS-B
Thu 02:57:40 PM 40.7077 -105.0410 341° North 406 467 22,600 1,286 Climbing FlightAware ADS-B
Thu 02:57:59 PM 40.7420 -105.0580 339° North 407 468 23,000 1,043 Climbing FlightAware ADS-B
Thu 02:58:03 PM 40.7495 -105.0620 338° Northwest 405 466 23,000  Level FlightAware ADS-B
Thu 02:58:06 PM 40.7542 -105.0650 334° Northwest 404 465 23,000  Level FlightAware ADS-B
Thu 02:58:16 PM 40.7703 -105.0780 329° Northwest 403 464 23,000 500 Level FlightAware ADS-B
Thu 02:58:30 PM 40.7909 -105.0970 325° Northwest 404 465 23,200 1,277 Climbing FlightAware ADS-B
Thu 02:59:03 PM 40.8371 -105.1500 319° Northwest 408 470 24,000 1,592 Climbing FlightAware ADS-B
Thu 03:00:08 PM 40.9325 -105.2570 320° Northwest 416 479 25,800 1,670 Climbing FlightAware ADS-B
Thu 03:00:40 PM 40.9786 -105.3100 319° Northwest 416 479 26,700 1,398 Climbing FlightAware ADS-B
Thu 03:01:51 PM 41.0836 -105.4290 320° Northwest 418 481 28,200 1,211 Climbing FlightAware ADS-B
Thu 03:02:29 PM 41.1410 -105.4950 319° Northwest 437 503 28,900 1,184 Climbing FlightAware ADS-B
Thu 03:03:07 PM 41.1990 -105.5620 319° Northwest 443 510 29,700 1,098 Climbing FlightAware ADS-B
Thu 03:03:51 PM 41.2680 -105.6410 319° Northwest 450 518 30,400 1,000 Climbing FlightAware ADS-B
Thu 03:04:31 PM 41.3320 -105.7140 319° Northwest 456 525 31,100 1,098 Climbing FlightAware ADS-B
Thu 03:05:13 PM 41.4010 -105.7890 321° Northwest 462 532 31,900 1,159 Climbing FlightAware ADS-B
Thu 03:05:59 PM 41.4790 -105.8690 322° Northwest 465 535 32,800 1,024 Climbing FlightAware ADS-B
Thu 03:06:35 PM 41.5410 -105.9340 322° Northwest 469 540 33,300 878 Climbing FlightAware ADS-B
Thu 03:07:21 PM 41.6190 -106.0170 322° Northwest 474 545 34,000 1,133 Climbing FlightAware ADS-B
Thu 03:08:05 PM 41.6930 -106.0970 321° Northwest 469 540 35,000 839 Climbing FlightAware ADS-B
Thu 03:08:54 PM 41.7680 -106.1770 322° Northwest 469 540 35,300 606 Climbing FlightAware ADS-B
Thu 03:09:44 PM 41.8620 -106.2780 321° Northwest 470 541 36,000 353 Climbing FlightAware ADS-B
Thu 03:10:53 PM 41.9690 -106.3930 321° Northwest 470 541 36,000  Level FlightAware ADS-B
Thu 03:11:28 PM 42.0190 -106.4480 321° Northwest 470 541 36,000  Level FlightAware ADS-B
Thu 03:12:16 PM 42.0880 -106.5230 321° Northwest 470 541 36,000  Level FlightAware ADS-B
Thu 03:12:55 PM 42.1440 -106.5850 321° Northwest 470 541 36,000  Level FlightAware ADS-B
Thu 03:13:32 PM 42.1980 -106.6430 321° Northwest 470 541 36,000  Level FlightAware ADS-B
Thu 03:14:18 PM 42.2640 -106.7150 321° Northwest 470 541 36,000  Level FlightAware ADS-B
Thu 03:15:03 PM 42.3944 -106.8542 321° Northwest 471 542 36,000  Level Salt Lake Center
Thu 03:20:15 PM 42.7760 -107.2790 321° Northwest 470 541 36,000  Level FlightAware ADS-B
Thu 03:21:15 PM 43.0125 -107.5431 321° Northwest 463 533 36,000  Level Salt Lake Center
Thu 03:22:17 PM 43.1239 -107.6694 320° Northwest 466 536 36,000  Level Salt Lake Center
Thu 03:23:20 PM 43.2197 -107.7794 320° Northwest 468 539 36,000 -144 Level Salt Lake Center
Thu 03:24:22 PM 43.3294 -107.9050 320° Northwest 464 534 35,700 -726 Descending Salt Lake Center
Thu 03:25:24 PM 43.4250 -108.0128 321° Northwest 465 535 34,500 -823 Descending Salt Lake Center
Thu 03:26:26 PM 43.5361 -108.1406 320° Northwest 466 536 34,000 -242 Descending Salt Lake Center
Thu 03:27:28 PM 43.6303 -108.2517 320° Northwest 465 535 34,000  Level Salt Lake Center
Thu 03:28:30 PM 43.7256 -108.3622 320° Northwest 467 537 34,000  Level Salt Lake Center
Thu 03:29:32 PM 43.8411 -108.4958 320° Northwest 464 534 34,000  Level Salt Lake Center
Thu 03:30:34 PM 43.9358 -108.6061 320° Northwest 463 533 34,000  Level Salt Lake Center
Thu 03:31:36 PM 44.0450 -108.7353 320° Northwest 463 533 34,000  Level Salt Lake Center
Thu 03:32:38 PM 44.1400 -108.8483 320° Northwest 466 536 34,000  Level Salt Lake Center
Thu 03:33:40 PM 44.2350 -108.9597 320° Northwest 467 537 34,000  Level Salt Lake Center
Thu 03:34:42 PM 44.3450 -109.0917 319° Northwest 467 537 34,000  Level Salt Lake Center
Thu 03:35:44 PM 44.4386 -109.2047 319° Northwest 465 535 34,000  Level Salt Lake Center
Thu 03:36:46 PM 44.5475 -109.3364 319° Northwest 464 534 34,000  Level Salt Lake Center
Thu 03:37:48 PM 44.6400 -109.4486 319° Northwest 461 531 34,000  Level Salt Lake Center
Thu 03:38:50 PM 44.7486 -109.5808 319° Northwest 464 534 34,000  Level Salt Lake Center
Thu 03:39:52 PM 44.8419 -109.6956 319° Northwest 465 535 34,000  Level Salt Lake Center
Thu 03:40:54 PM 44.9517 -109.8278 320° Northwest 466 536 34,000  Level Salt Lake Center
Thu 03:41:56 PM 45.0444 -109.9436 319° Northwest 466 536 34,000  Level Salt Lake Center
Thu 03:42:59 PM 45.1536 -110.0797 319° Northwest 468 539 34,000  Level Salt Lake Center
Thu 03:44:00 PM 45.2467 -110.1936 319° Northwest 466 536 34,000  Level Salt Lake Center
Thu 03:45:02 PM 45.3514 -110.3264 318° Northwest 458 527 34,000  Level Salt Lake Center
Thu 03:46:05 PM 45.4453 -110.4450 318° Northwest 469 540 34,000  Level Salt Lake Center
Thu 03:47:06 PM 45.5528 -110.5811 318° Northwest 466 536 34,000  Level Salt Lake Center
Thu 03:48:08 PM 45.6378 -110.6864 319° Northwest 456 525 34,000  Level Salt Lake Center
Thu 03:49:10 PM 45.7333 -110.8081 318° Northwest 460 529 34,000  Level Salt Lake Center
Thu 03:50:12 PM 45.8478 -110.9522 319° Northwest 464 534 34,000  Level Salt Lake Center
Thu 03:51:14 PM 45.9422 -111.0742 318° Northwest 468 539 34,000  Level Salt Lake Center
Thu 03:52:16 PM 46.0347 -111.1981 317° Northwest 462 532 34,000  Level Salt Lake Center
Thu 03:53:18 PM 46.1289 -111.3217 318° Northwest 461 531 34,000  Level Salt Lake Center
Thu 03:54:20 PM 46.2411 -111.4708 317° Northwest 457 526 34,000  Level Salt Lake Center
Thu 03:55:22 PM 46.3361 -111.5950 318° Northwest 461 531 34,000  Level Salt Lake Center
Thu 03:56:25 PM 46.4308 -111.7214 317° Northwest 464 534 34,000  Level Salt Lake Center
Thu 03:57:26 PM 46.5200 -111.8392 318° Northwest 460 529 34,000  Level Salt Lake Center
Thu 03:58:28 PM 46.6144 -111.9656 317° Northwest 460 529 34,000  Level Salt Lake Center
Thu 03:59:30 PM 46.7294 -112.1136 319° Northwest 459 528 34,000  Level Salt Lake Center
Thu 04:00:32 PM 46.8244 -112.2361 319° Northwest 456 525 34,000 -48 Level Salt Lake Center
Thu 04:01:34 PM 46.9189 -112.3600 318° Northwest 456 525 33,900  Descending Salt Lake Center
Thu 04:02:36 PM 47.0142 -112.4864 318° Northwest 459 528 34,000 48 Climbing Salt Lake Center
Thu 04:03:38 PM 47.1094 -112.6128 318° Northwest 462 532 34,000  Level Salt Lake Center
Thu 04:04:40 PM 47.2042 -112.7375 318° Northwest 458 527 34,000  Level Salt Lake Center
Thu 04:05:42 PM 47.2975 -112.8636 318° Northwest 457 526 34,000  Level Salt Lake Center
Thu 04:06:43 PM 47.3994 -112.9992 318° Northwest 458 527 34,000  Level Salt Lake Center
Thu 04:12:37 PM 47.9630 -113.7710 318° Northwest 458 527 34,000  Level FlightAware ADS-B
Thu 04:13:17 PM 48.0250 -113.8580 317° Northwest 450 518 34,000  Level FlightAware ADS-B
Thu 04:14:03 PM 48.0960 -113.9580 317° Northwest 451 519 34,000  Level FlightAware ADS-B
Thu 04:14:47 PM 48.1640 -114.0520 317° Northwest 449 517 34,000  Level FlightAware ADS-B
Thu 04:15:23 PM 48.2190 -114.1300 317° Northwest 451 519 34,000  Level FlightAware ADS-B
Thu 04:16:07 PM 48.2880 -114.2280 317° Northwest 453 521 34,000  Level FlightAware ADS-B
Thu 04:16:52 PM 48.3550 -114.3230 317° Northwest 454 522 34,000  Level FlightAware ADS-B
Thu 04:17:33 PM 48.4190 -114.4140 317° Northwest 454 522 34,000  Level FlightAware ADS-B
Thu 04:18:43 PM 48.5260 -114.5660 317° Northwest 451 519 34,000  Level FlightAware ADS-B
Thu 04:19:27 PM 48.5940 -114.6650 316° Northwest 449 517 34,000  Level FlightAware ADS-B
Thu 04:20:08 PM 48.6560 -114.7540 317° Northwest 451 519 34,000  Level FlightAware ADS-B
Thu 04:20:47 PM 48.7160 -114.8410 316° Northwest 451 519 34,000  Level FlightAware ADS-B
Thu 04:21:28 PM 48.7760 -114.9280 316° Northwest 452 520 34,000  Level FlightAware ADS-B
Thu 04:22:17 PM 48.8510 -115.0380 316° Northwest 450 518 34,000  Level FlightAware ADS-B
Thu 04:22:53 PM 48.9050 -115.1170 316° Northwest 450 518 34,000  Level FlightAware ADS-B
Thu 04:23:38 PM 48.9710 -115.2140 316° Northwest 449 517 34,000  Level FlightAware ADS-B
Thu 04:24:22 PM 49.0370 -115.3110 316° Northwest 449 517 34,000  Level FlightAware ADS-B
Thu 04:25:13 PM 49.1130 -115.4240 316° Northwest 447 514 34,000  Level FlightAware ADS-B
Thu 04:25:58 PM 49.1790 -115.5220 316° Northwest 446 513 34,000  Level FlightAware ADS-B
Thu 04:26:42 PM 49.2440 -115.6190 316° Northwest 449 517 34,000  Level FlightAware ADS-B
Thu 04:27:24 PM 49.3050 -115.7110 315° West 449 517 34,000  Level FlightAware ADS-B
Thu 04:28:23 PM 49.3850 -115.8330 315° West 447 514 34,000  Level FlightAware ADS-B
Thu 04:29:17 PM 49.4730 -115.9640 316° Northwest 439 505 34,000  Level FlightAware ADS-B
Thu 04:29:58 PM 49.5320 -116.0550 315° West 441 507 34,000  Level FlightAware ADS-B
Thu 04:30:37 PM 49.5860 -116.1440 313° West 442 509 34,000  Level FlightAware ADS-B
Thu 04:31:22 PM 49.6460 -116.2520 311° West 443 510 34,000  Level FlightAware ADS-B
Thu 04:31:57 PM 49.6940 -116.3370 311° West 443 510 34,000  Level FlightAware ADS-B
Thu 04:32:47 PM 49.7610 -116.4560 311° West 443 510 34,000  Level FlightAware ADS-B
Thu 04:33:28 PM 49.8150 -116.5540 311° West 441 507 34,000  Level FlightAware ADS-B
Thu 04:34:09 PM 49.8680 -116.6480 311° West 440 506 34,000  Level FlightAware ADS-B
Thu 04:34:53 PM 49.9260 -116.7540 310° West 435 501 34,000  Level FlightAware ADS-B
Thu 04:35:30 PM 49.9690 -116.8320 311° West 439 505 34,000  Level FlightAware ADS-B
Thu 04:36:15 PM 50.0350 -116.9520 311° West 438 504 34,000  Level FlightAware ADS-B
Thu 04:36:58 PM 50.0920 -117.0570 310° West 435 501 34,000  Level FlightAware ADS-B
Thu 04:37:42 PM 50.1490 -117.1620 310° West 437 503 34,000  Level FlightAware ADS-B
Thu 04:38:18 PM 50.1930 -117.2430 310° West 444 511 34,000  Level FlightAware ADS-B
Thu 04:39:10 PM 50.2670 -117.3800 310° West 444 511 34,000  Level FlightAware ADS-B
Thu 04:40:07 PM 50.3360 -117.5100 310° West 445 512 34,000  Level FlightAware ADS-B
Thu 04:40:54 PM 50.3870 -117.6100 309° West 445 512 34,000  Level FlightAware ADS-B
Thu 04:42:20 PM 50.5160 -117.8480 310° West 444 511 34,000  Level FlightAware ADS-B
Thu 04:43:00 PM 50.5640 -117.9380 310° West 444 511 34,000  Level FlightAware ADS-B
Thu 04:43:30 PM 50.6070 -118.0210 309° West 444 511 34,000  Level FlightAware ADS-B
Thu 04:48:31 PM 50.9980 -118.7760 310° West 442 509 34,000  Level FlightAware ADS-B
Thu 04:49:15 PM 51.0560 -118.8890 309° West 439 505 34,000  Level FlightAware ADS-B
Thu 04:49:55 PM 51.1070 -118.9890 309° West 437 503 34,000  Level FlightAware ADS-B
Thu 04:50:47 PM 51.1730 -119.1200 309° West 438 504 34,000  Level FlightAware ADS-B
Thu 04:52:33 PM 51.3060 -119.3870 309° West 436 502 34,000  Level FlightAware ADS-B
Thu 04:53:16 PM 51.3600 -119.4950 309° West 436 502 34,000  Level FlightAware ADS-B
Thu 04:53:49 PM 51.3960 -119.5690 308° West 436 502 34,000  Level FlightAware ADS-B
Thu 04:54:53 PM 51.4810 -119.7410 308° West 433 498 34,000  Level FlightAware ADS-B
Thu 04:56:17 PM 51.5840 -119.9520 308° West 432 497 34,000  Level FlightAware ADS-B
Thu 04:56:57 PM 51.6340 -120.0540 308° West 431 496 34,000  Level FlightAware ADS-B
Thu 04:57:42 PM 51.6870 -120.1630 308° West 429 494 34,000  Level FlightAware ADS-B
Thu 04:58:23 PM 51.7380 -120.2700 308° West 429 494 34,000  Level FlightAware ADS-B
Thu 04:59:05 PM 51.7890 -120.3760 308° West 427 491 34,000  Level FlightAware ADS-B
Thu 04:59:43 PM 51.8340 -120.4690 308° West 426 490 34,000  Level FlightAware ADS-B
Thu 05:03:21 PM 52.0490 -120.9270 307° West 425 489 34,000  Level FlightAware ADS-B
Thu 05:04:09 PM 52.0970 -121.0320 307° West 425 489 34,000  Level FlightAware ADS-B
Thu 05:04:50 PM 52.2010 -121.2520 308° West 436 502 34,000  Level FlightAware ADS-B
Thu 05:05:27 PM 52.2470 -121.3510 307° West 438 504 34,000  Level FlightAware ADS-B
Thu 05:06:11 PM 52.3010 -121.4680 307° West 442 509 34,000  Level FlightAware ADS-B
Thu 05:06:59 PM 52.3600 -121.5960 307° West 443 510 34,000  Level FlightAware ADS-B
Thu 05:07:35 PM 52.4040 -121.6930 307° West 443 510 34,000  Level FlightAware ADS-B
Thu 05:08:21 PM 52.4590 -121.8140 307° West 444 511 34,000  Level FlightAware ADS-B
Thu 05:09:01 PM 52.5090 -121.9250 307° West 441 507 34,000  Level FlightAware ADS-B
Thu 05:09:45 PM 52.5620 -122.0420 307° West 441 507 34,000  Level FlightAware ADS-B
Thu 05:10:21 PM 52.6050 -122.1390 306° West 440 506 34,000  Level FlightAware ADS-B
Thu 05:11:01 PM 52.6530 -122.2460 307° West 440 506 34,000  Level FlightAware ADS-B
Thu 05:11:49 PM 52.7020 -122.3570 306° West 440 506 34,000  Level FlightAware ADS-B
Thu 05:12:31 PM 52.7620 -122.4910 307° West 443 510 34,000  Level FlightAware ADS-B
Thu 05:13:11 PM 52.8100 -122.6010 306° West 444 511 34,000  Level FlightAware ADS-B
Thu 05:13:57 PM 52.8650 -122.7260 306° West 445 512 34,000  Level FlightAware ADS-B
Thu 05:14:38 PM 52.9150 -122.8400 306° West 447 514 34,000  Level FlightAware ADS-B
Thu 05:15:27 PM 52.9730 -122.9750 306° West 450 518 34,000  Level FlightAware ADS-B
Thu 05:16:10 PM 53.0260 -123.0980 306° West 457 526 34,000  Level FlightAware ADS-B
Thu 05:16:58 PM 53.0850 -123.2350 306° West 458 527 34,000  Level FlightAware ADS-B
Thu 05:17:40 PM 53.1370 -123.3560 306° West 462 532 34,000  Level FlightAware ADS-B
Thu 05:18:22 PM 53.1890 -123.4790 305° West 468 539 34,000  Level FlightAware ADS-B
Thu 05:19:04 PM 53.2410 -123.6030 305° West 466 536 34,000  Level FlightAware ADS-B
Thu 05:19:47 PM 53.2920 -123.7240 305° West 468 539 34,000  Level FlightAware ADS-B
Thu 05:20:07 PM 53.3180 -123.7850 306° West 472 543 34,000  Level FlightAware ADS-B
Thu 05:20:58 PM 53.3830 -123.9400 305° West 479 551 34,000  Level FlightAware ADS-B
Thu 05:21:40 PM 53.4360 -124.0700 304° West 479 551 34,000  Level FlightAware ADS-B
Thu 05:22:17 PM 53.4830 -124.1810 305° West 483 556 34,000  Level FlightAware ADS-B
Thu 05:23:00 PM 53.5370 -124.3150 304° West 487 560 34,000  Level FlightAware ADS-B
Thu 05:23:40 PM 53.5890 -124.4410 305° West 486 559 34,000  Level FlightAware ADS-B
Thu 05:24:24 PM 53.6440 -124.5760 305° West 486 559 34,000  Level FlightAware ADS-B
Thu 05:25:08 PM 53.7010 -124.7160 305° West 490 564 34,000  Level FlightAware ADS-B
Thu 05:25:52 PM 53.7570 -124.8560 304° West 492 566 34,000  Level FlightAware ADS-B
Thu 05:26:32 PM 53.8080 -124.9820 304° West 495 570 34,000  Level FlightAware ADS-B
Thu 05:27:12 PM 53.8590 -125.1120 304° West 494 568 34,000  Level FlightAware ADS-B
Thu 05:27:56 PM 53.9150 -125.2510 304° West 497 572 34,000  Level FlightAware ADS-B
Thu 05:28:40 PM 53.9710 -125.3940 304° West 498 573 34,000  Level FlightAware ADS-B
Thu 05:29:20 PM 54.0220 -125.5250 304° West 498 573 34,000  Level FlightAware ADS-B
Thu 05:30:02 PM 54.0760 -125.6640 304° West 503 579 34,000  Level FlightAware ADS-B
Thu 05:30:42 PM 54.1270 -125.7950 304° West 507 583 34,000  Level FlightAware ADS-B
Thu 05:31:26 PM 54.1840 -125.9420 304° West 513 590 34,000  Level FlightAware ADS-B
Thu 05:32:08 PM 54.2380 -126.0840 303° West 513 590 34,000  Level FlightAware ADS-B
Thu 05:32:47 PM 54.2880 -126.2150 303° West 513 590 34,000  Level FlightAware ADS-B
Thu 05:33:34 PM 54.3500 -126.3780 303° West 512 589 34,000  Level FlightAware ADS-B
Thu 05:34:13 PM 54.3990 -126.5090 303° West 513 590 34,000  Level FlightAware ADS-B
Thu 05:34:56 PM 54.4560 -126.6530 304° West 511 588 34,000  Level FlightAware ADS-B
Thu 05:35:36 PM 54.5190 -126.7800 311° West 516 594 34,000  Level FlightAware ADS-B
Thu 05:36:20 PM 54.5870 -126.9150 311° West 516 594 34,000  Level FlightAware ADS-B
Thu 05:37:04 PM 54.6550 -127.0490 311° West 518 596 34,000  Level FlightAware ADS-B
Thu 05:37:44 PM 54.7190 -127.1740 312° West 518 596 34,000  Level FlightAware ADS-B
Thu 05:38:24 PM 54.7810 -127.2980 311° West 517 595 34,000  Level FlightAware ADS-B
Thu 05:39:08 PM 54.8500 -127.4360 311° West 518 596 34,000  Level FlightAware ADS-B
Thu 05:40:19 PM 54.9430 -127.6290 310° West 518 596 34,000  Level FlightAware ADS-B
Thu 05:40:54 PM 54.9890 -127.7240 310° West 518 596 34,000  Level FlightAware ADS-B
Thu 05:41:42 PM 55.0900 -127.9240 311° West 519 597 34,000  Level FlightAware ADS-B
Thu 05:42:18 PM 55.1470 -128.0400 311° West 520 598 34,000  Level FlightAware ADS-B
Thu 05:43:04 PM 55.2080 -128.1680 310° West 518 596 34,000  Level FlightAware ADS-B
Thu 05:43:50 PM 55.2690 -128.2940 310° West 518 596 34,000  Level FlightAware ADS-B
Thu 05:44:26 PM 55.3160 -128.3930 310° West 518 596 34,000  Level FlightAware ADS-B
Thu 05:45:14 PM 55.3790 -128.5250 310° West 518 596 34,000  Level FlightAware ADS-B
Thu 05:45:49 PM 55.4240 -128.6210 310° West 518 596 34,000  Level FlightAware ADS-B
Thu 05:46:37 PM 55.4870 -128.7530 310° West 518 596 34,000  Level FlightAware ADS-B
Thu 05:47:14 PM 55.5360 -128.8550 310° West 518 596 34,000  Level FlightAware ADS-B
Thu 05:48:16 PM 55.6170 -129.0260 310° West 518 596 34,000  Level FlightAware ADS-B
Thu 05:48:51 PM 55.6630 -129.1230 310° West 518 596 34,000  Level FlightAware ADS-B
Thu 05:49:38 PM 55.7240 -129.2530 310° West 518 596 34,000  Level FlightAware ADS-B
Thu 05:50:14 PM 55.7710 -129.3530 310° West 518 596 34,000  Level FlightAware ADS-B
Thu 05:51:01 PM 55.8330 -129.4830 310° West 518 596 34,000  Level FlightAware ADS-B
Thu 05:51:38 PM 55.8810 -129.5860 310° West 518 596 34,000  Level FlightAware ADS-B
Thu 05:52:28 PM 55.9470 -129.7250 310° West 518 596 34,000  Level FlightAware ADS-B
Thu 05:53:23 PM 56.1667 -130.3000 310° West 550 633 34,000  Level Vancouver Center
Thu 05:54:23 PM 56.2667 -130.5167 310° West 550 633 34,000  Level Vancouver Center
Thu 05:55:23 PM 56.3667 -130.7167 312° West 550 633 34,000  Level Vancouver Center
Thu 05:56:23 PM 56.4667 -130.9500 308° West 550 633 34,000  Level Vancouver Center
Thu 05:56:53 PM 56.5000 -131.0167 312° West 550 633 34,000  Level Anchorage Center
Thu 05:57:53 PM 56.5833 -131.2167 307° West 540 621 34,000  Level Anchorage Center
Thu 05:58:23 PM 56.6333 -131.3833 299° West 530 610 34,000  Level Vancouver Center
Thu 05:59:23 PM 56.7333 -131.6167 308° West 550 633 34,000  Level Vancouver Center
Thu 05:59:54 PM 56.7667 -131.6500 331° Northwest 540 621 34,000  Level Anchorage Center
Thu 06:00:54 PM 56.8500 -131.8333 310° West 530 610 34,000  Level Anchorage Center
Thu 06:03:10 PM 57.0667 -132.3667 307° West 570 656 34,000  Level Anchorage Center
Thu 06:04:10 PM 57.1500 -132.5833 305° West 530 610 34,000  Level Anchorage Center
Thu 06:05:11 PM 57.2333 -132.8000 305° West 540 621 34,000  Level Anchorage Center
Thu 06:06:11 PM 57.3333 -133.0333 309° West 540 621 34,000  Level Anchorage Center
Thu 06:07:11 PM 57.4167 -133.2500 306° West 530 610 34,000  Level Anchorage Center
Thu 06:08:12 PM 57.5000 -133.4667 306° West 530 610 34,000  Level Anchorage Center
Thu 06:09:12 PM 57.5833 -133.7000 304° West 530 610 34,000  Level Anchorage Center
Thu 06:10:12 PM 57.6667 -133.9167 306° West 530 610 34,000  Level Anchorage Center
Thu 06:11:13 PM 57.7667 -134.1333 311° West 530 610 34,000  Level Anchorage Center
Thu 06:12:13 PM 57.8500 -134.3667 304° West 520 598 34,000  Level Anchorage Center
Thu 06:13:14 PM 57.9333 -134.5833 306° West 520 598 34,000  Level Anchorage Center
Thu 06:14:14 PM 58.0000 -134.8000 300° West 520 598 34,000  Level Anchorage Center
Thu 06:15:14 PM 58.0833 -135.0333 304° West 520 598 34,000  Level Anchorage Center
Thu 06:16:14 PM 58.1667 -135.2500 306° West 520 598 34,000  Level Anchorage Center
Thu 06:17:14 PM 58.2500 -135.4833 304° West 520 598 34,000  Level Anchorage Center
Thu 06:18:15 PM 58.3167 -135.7167 299° West 520 598 34,000  Level Anchorage Center
Thu 06:19:15 PM 58.4000 -135.9500 304° West 520 598 34,000  Level Anchorage Center
Thu 06:20:16 PM 58.4667 -136.1833 299° West 520 598 34,000  Level Anchorage Center
Thu 06:21:16 PM 58.5500 -136.4333 303° West 510 587 34,000  Level Anchorage Center
Thu 06:22:16 PM 58.6333 -136.6667 305° West 510 587 34,000  Level Anchorage Center
Thu 06:23:17 PM 58.7000 -136.9000 299° West 520 598 34,000  Level Anchorage Center
Thu 06:24:17 PM 58.7833 -137.1333 305° West 520 598 34,000  Level Anchorage Center
Thu 06:25:17 PM 58.8500 -137.3833 297° West 510 587 34,000  Level Anchorage Center
Thu 06:27:18 PM 59.0000 -137.8667 301° West 520 598 34,000  Level Anchorage Center
Thu 06:28:18 PM 59.0667 -138.1000 299° West 510 587 34,000  Level Anchorage Center
Thu 06:29:19 PM 59.1333 -138.3500 298° West 510 587 34,000  Level Anchorage Center
Thu 06:30:19 PM 59.2000 -138.5833 299° West 510 587 34,000  Level Anchorage Center
Thu 06:31:19 PM 59.2833 -138.8333 303° West 510 587 34,000  Level Anchorage Center
Thu 06:32:19 PM 59.3500 -139.0667 299° West 510 587 34,000  Level Anchorage Center
Thu 06:33:20 PM 59.4167 -139.3167 298° West 510 587 34,000  Level Anchorage Center
Thu 06:34:20 PM 59.4833 -139.5500 299° West 510 587 34,000  Level Anchorage Center
Thu 06:36:21 PM 59.6167 -140.0833 296° West 510 587 34,000  Level Anchorage Center
Thu 06:37:21 PM 59.6833 -140.3333 298° West 500 575 34,000  Level Anchorage Center
Thu 06:38:21 PM 59.7333 -140.5833 292° West 500 575 34,000  Level Anchorage Center
Thu 06:40:00 PM 59.8296 -140.9858 296° West  Level FlightAware Approximate
Thu 06:41:22 PM 59.9167 -141.3333 296° West 500 575 34,000  Level Anchorage Center
Thu 06:42:23 PM 59.9833 -141.5833 298° West 500 575 34,000  Level Anchorage Center
Thu 06:43:23 PM 60.0333 -141.8500 291° West 500 575 34,000  Level Anchorage Center
Thu 06:44:23 PM 60.0833 -142.1000 292° West 500 575 34,000  Level Anchorage Center
Thu 06:45:24 PM 60.1500 -142.3500 298° West 500 575 34,000  Level Anchorage Center
Thu 06:46:24 PM 60.2000 -142.6000 292° West 490 564 34,000  Level Anchorage Center
Thu 06:47:25 PM 60.2667 -142.8500 298° West 500 575 34,000  Level Anchorage Center
Thu 06:48:25 PM 60.3167 -143.1167 291° West 490 564 34,000  Level Anchorage Center
Thu 06:49:25 PM 60.3667 -143.3833 291° West 500 575 34,000  Level Anchorage Center
Thu 06:50:26 PM 60.4333 -143.6333 298° West 490 564 34,000  Level Anchorage Center
Thu 06:51:25 PM 60.4833 -143.8833 292° West 490 564 34,000  Level Anchorage Center
Thu 06:52:26 PM 60.5333 -144.1500 291° West 490 564 34,000  Level Anchorage Center
Thu 06:53:26 PM 60.5833 -144.4000 292° West 490 564 34,000  Level Anchorage Center
Thu 06:54:27 PM 60.6333 -144.6667 291° West 490 564 34,000  Level Anchorage Center
Thu 06:55:27 PM 60.6833 -144.9167 292° West 490 564 34,000  Level Anchorage Center
Thu 06:56:27 PM 60.7333 -145.1833 291° West 480 552 34,000  Level Anchorage Center
Thu 06:57:28 PM 60.7833 -145.4333 292° West 500 575 34,000  Level Anchorage Center
Thu 06:58:28 PM 60.8333 -145.7000 291° West 490 564 34,000  Level Anchorage Center
Thu 06:59:28 PM 60.8833 -145.9667 291° West 490 564 34,000  Level Anchorage Center
Thu 07:00:29 PM 60.9333 -146.2167 292° West 490 564 34,000  Level Anchorage Center
Thu 07:05:56 PM 61.2060 -147.7010 292° West 488 562 34,000  Level FlightAware ADS-B
Thu 07:06:36 PM 61.2360 -147.8770 290° West 486 559 34,000  Level FlightAware ADS-B
Thu 07:07:16 PM 61.2650 -148.0510 289° West 487 560 34,000  Level FlightAware ADS-B
Thu 07:07:56 PM 61.2950 -148.2310 289° West 486 559 34,000  Level FlightAware ADS-B
Thu 07:08:46 PM 61.3320 -148.4520 289° West 485 558 34,000  Level FlightAware ADS-B
Thu 07:09:26 PM 61.3600 -148.6230 289° West 485 558 34,000  Level FlightAware ADS-B
Thu 07:10:06 PM 61.3880 -148.8010 288° West 483 556 34,000  Level FlightAware ADS-B
Thu 07:10:51 PM 61.4200 -149.0020 288° West 484 557 34,000  Level FlightAware ADS-B
Thu 07:11:47 PM 61.4470 -149.1690 289° West 483 556 34,000  Level FlightAware ADS-B
Thu 07:12:31 PM 61.4890 -149.4390 288° West 479 551 34,000  Level FlightAware ADS-B
Thu 07:13:05 PM 61.5130 -149.5960 288° West 480 552 34,000  Level FlightAware ADS-B
Thu 07:13:51 PM 61.5420 -149.7890 288° West 480 552 34,000  Level FlightAware ADS-B
Thu 07:14:31 PM 61.5700 -149.9660 288° West 481 554 34,000  Level FlightAware ADS-B
Thu 07:15:15 PM 61.6060 -150.1660 291° West 482 555 34,000  Level FlightAware ADS-B
Thu 07:16:05 PM 61.6460 -150.3810 291° West 481 554 34,000  Level FlightAware ADS-B
Thu 07:16:55 PM 61.6860 -150.6020 291° West 480 552 34,000  Level FlightAware ADS-B
Thu 07:17:35 PM 61.7170 -150.7740 291° West 479 551 34,000  Level FlightAware ADS-B
Thu 07:18:20 PM 61.7490 -150.9520 291° West 478 550 34,000  Level FlightAware ADS-B
Thu 07:19:01 PM 61.7820 -151.1410 290° West 476 548 34,000  Level FlightAware ADS-B
Thu 07:19:42 PM 61.8140 -151.3210 291° West 476 548 34,000  Level FlightAware ADS-B
Thu 07:20:26 PM 61.8470 -151.5100 290° West 475 547 34,000  Level FlightAware ADS-B
Thu 07:21:04 PM 61.8760 -151.6820 290° West 474 545 34,000  Level FlightAware ADS-B
Thu 07:21:49 PM 61.9090 -151.8740 290° West 474 545 34,000  Level FlightAware ADS-B
Thu 07:22:29 PM 61.9390 -152.0520 290° West 477 549 34,000  Level FlightAware ADS-B
Thu 07:23:29 PM 61.9830 -152.3140 290° West 478 550 34,000  Level FlightAware ADS-B
Thu 07:24:07 PM 62.0070 -152.4570 290° West 478 550 34,000  Level FlightAware ADS-B
Thu 07:24:43 PM 62.0300 -152.5930 290° West 478 550 34,000  Level FlightAware ADS-B
Thu 07:25:31 PM 62.0610 -152.7740 290° West 478 550 34,000  Level FlightAware ADS-B
Thu 07:26:07 PM 62.0840 -152.9090 290° West 478 550 34,000  Level FlightAware ADS-B
Thu 07:26:55 PM 62.1150 -153.0910 290° West 478 550 34,000  Level FlightAware ADS-B
Thu 07:27:32 PM 62.1390 -153.2310 290° West 478 550 34,000  Level FlightAware ADS-B
Thu 07:28:20 PM 62.1690 -153.4120 290° West 478 550 34,000  Level FlightAware ADS-B
Thu 07:28:56 PM 62.1930 -153.5480 291° West 478 550 34,000  Level FlightAware ADS-B
Thu 07:29:44 PM 62.2230 -153.7300 290° West 478 550 34,000  Level FlightAware ADS-B
Thu 07:30:20 PM 62.2470 -153.8670 291° West 478 550 34,000  Level FlightAware ADS-B
Thu 07:31:08 PM 62.2770 -154.0490 290° West 478 550 34,000  Level FlightAware ADS-B
Thu 07:31:44 PM 62.3000 -154.1860 290° West 478 550 34,000  Level FlightAware ADS-B
Thu 07:32:32 PM 62.3310 -154.3680 290° West 478 550 34,000  Level FlightAware ADS-B
Thu 07:33:08 PM 62.3540 -154.5050 290° West 478 550 34,000  Level FlightAware ADS-B
Thu 07:33:39 PM 62.4000 -155.0333 290° West 470 541 34,000  Level Anchorage Center
Thu 07:34:40 PM 62.4333 -155.3000 285° West 470 541 34,000  Level Anchorage Center
Thu 07:35:40 PM 62.4667 -155.5667 285° West 470 541 34,000  Level Anchorage Center
Thu 07:36:40 PM 62.5000 -155.8333 285° West 460 529 34,000  Level Anchorage Center
Thu 07:37:40 PM 62.5333 -156.1000 285° West 470 541 34,000  Level Anchorage Center
Thu 07:38:41 PM 62.5833 -156.3833 291° West 470 541 34,000  Level Anchorage Center
Thu 07:39:41 PM 62.6167 -156.6667 284° West 480 552 34,000  Level Anchorage Center
Thu 07:40:41 PM 62.6500 -156.9500 284° West 490 564 34,000  Level Anchorage Center
Thu 07:41:42 PM 62.6833 -157.2333 284° West 470 541 34,000  Level Anchorage Center
Thu 07:42:42 PM 62.7167 -157.5167 285° West 470 541 34,000  Level Anchorage Center
Thu 07:43:43 PM 62.7500 -157.7833 285° West 470 541 34,000  Level Anchorage Center
Thu 07:44:43 PM 62.7833 -158.0667 285° West 470 541 34,000  Level Anchorage Center
Thu 07:45:43 PM 62.8167 -158.3333 285° West 470 541 34,000  Level Anchorage Center
Thu 07:46:44 PM 62.8500 -158.6167 285° West 470 541 34,000  Level Anchorage Center
Thu 07:47:44 PM 62.8833 -158.9167 284° West 480 552 34,000  Level Anchorage Center
Thu 07:48:44 PM 62.9167 -159.1833 285° West 470 541 34,000  Level Anchorage Center
Thu 07:49:45 PM 62.9333 -159.4667 277° West 470 541 34,000  Level Anchorage Center
Thu 07:50:45 PM 62.9667 -159.7500 285° West 470 541 34,000  Level Anchorage Center
Thu 07:51:45 PM 63.0000 -160.0333 285° West 470 541 34,000  Level Anchorage Center
Thu 07:52:46 PM 63.0167 -160.3333 277° West 460 529 34,000  Level Anchorage Center
Thu 07:53:46 PM 63.0500 -160.6000 286° West 460 529 34,000  Level Anchorage Center
Thu 07:54:46 PM 63.0667 -160.8833 278° West 460 529 34,000  Level Anchorage Center
Thu 07:55:46 PM 63.1000 -161.1667 285° West 460 529 34,000  Level Anchorage Center
Thu 07:56:47 PM 63.1167 -161.4500 278° West 460 529 34,000  Level Anchorage Center
Thu 07:57:47 PM 63.1500 -161.7333 285° West 470 541 34,000  Level Anchorage Center
Thu 07:58:47 PM 63.1667 -162.0000 278° West 450 518 34,000  Level Anchorage Center
Thu 07:59:48 PM 63.2000 -162.2833 285° West 450 518 34,000  Level Anchorage Center
Thu 08:00:48 PM 63.2167 -162.5667 278° West 450 518 34,000  Level Anchorage Center
Thu 08:01:48 PM 63.2333 -162.8333 278° West 460 529 34,000  Level Anchorage Center
Thu 08:02:49 PM 63.2667 -163.1167 285° West 450 518 34,000  Level Anchorage Center
Thu 08:03:49 PM 63.2833 -163.4000 278° West 460 529 34,000  Level Anchorage Center
Thu 08:04:49 PM 63.3000 -163.6833 278° West 450 518 34,000  Level Anchorage Center
Thu 08:05:50 PM 63.3167 -163.9500 278° West 440 506 34,000  Level Anchorage Center
Thu 08:06:50 PM 63.3333 -164.2167 278° West 450 518 34,000  Level Anchorage Center
Thu 08:07:50 PM 63.3500 -164.5000 278° West 450 518 34,000  Level Anchorage Center
Thu 08:08:51 PM 63.3667 -164.7667 278° West 440 506 34,000  Level Anchorage Center
Thu 08:09:51 PM 63.3833 -165.0333 278° West 440 506 34,000  Level Anchorage Center
Thu 08:10:51 PM 63.4000 -165.3167 278° West 440 506 34,000  Level Anchorage Center
Thu 08:11:51 PM 63.4167 -165.5833 278° West 440 506 34,000  Level Anchorage Center
Thu 08:12:52 PM 63.4333 -165.8500 278° West 440 506 34,000  Level Anchorage Center
Thu 08:13:52 PM 63.4500 -166.1833 277° West 440 506 34,000  Level Anchorage Center
Thu 08:14:52 PM 63.4667 -166.4500 278° West 430 495 34,000  Level Anchorage Center
Thu 08:15:53 PM 63.4833 -166.7167 278° West 440 506 34,000  Level Anchorage Center
Thu 08:16:53 PM 63.5000 -167.0000 278° West 440 506 34,000  Level Anchorage Center
Thu 08:17:53 PM 63.5000 -167.2667 270° West 430 495 34,000  Level Anchorage Center
Thu 08:18:54 PM 63.5167 -167.5333 278° West 430 495 34,000  Level Anchorage Center
Thu 08:19:54 PM 63.5333 -167.8000 278° West 440 506 34,000  Level Anchorage Center
Thu 08:20:55 PM 63.5500 -168.0667 278° West 440 506 34,000  Level Anchorage Center
Thu 08:21:55 PM 63.5500 -168.3500 270° West 450 518 34,000  Level Anchorage Center
Thu 08:22:55 PM 63.5667 -168.5833 279° West 440 506 34,000  Level Anchorage Center
Thu 08:23:56 PM 63.5667 -168.9333 270° West 450 518 34,000  Level Anchorage Center
Thu 08:24:56 PM 63.5833 -169.2167 278° West 460 529 34,000  Level Anchorage Center
Thu 08:25:56 PM 63.5833 -169.5000 270° West 470 541 34,000  Level Anchorage Center
Thu 08:26:57 PM 63.6000 -169.7833 278° West 460 529 34,000  Level Anchorage Center
Thu 08:27:57 PM 63.6000 -170.0667 270° West 460 529 34,000  Level Anchorage Center
Thu 08:28:57 PM 63.6167 -170.3500 278° West 450 518 34,000  Level Anchorage Center
Thu 08:29:58 PM 63.6167 -170.6000 270° West 460 529 34,000  Level Anchorage Center
Thu 08:30:58 PM 63.6167 -170.9333 270° West 460 529 34,000  Level Anchorage Center
Thu 08:31:58 PM 63.6333 -171.2333 277° West 460 529 34,000  Level Anchorage Center
Thu 08:32:58 PM 63.6333 -171.5167 270° West 460 529 34,000  Level Anchorage Center
Thu 08:33:59 PM 63.6333 -171.8000 270° West 460 529 34,000  Level Anchorage Center
Thu 08:34:59 PM 63.6500 -172.1000 277° West 460 529 34,000  Level Anchorage Center
Thu 08:35:59 PM 63.6500 -172.4000 270° West 470 541 34,000  Level Anchorage Center
Thu 08:37:00 PM 63.6500 -172.6833 270° West 470 541 34,000  Level Anchorage Center
Thu 08:38:00 PM 63.6500 -172.9833 270° West 470 541 34,000  Level Anchorage Center
Thu 08:43:28 PM 63.5720 -174.5470 270° West 476 548 34,000  Level FlightAware ADS-B
Thu 08:44:10 PM 63.5590 -174.7510 262° West 476 548 34,000  Level FlightAware ADS-B
Thu 08:44:51 PM 63.5470 -174.9390 262° West 476 548 34,000  Level FlightAware ADS-B
Thu 08:47:00 PM 63.5024 -175.5809 261° West  Level FlightAware Approximate
Thu 08:48:00 PM 63.4807 -175.8788 261° West  Level FlightAware Approximate
Thu 08:48:30 PM 63.4700 -176.0130 261° West 478 550 34,000  Level FlightAware ADS-B
Thu 08:49:14 PM 63.4550 -176.2180 261° West 477 549 34,000  Level FlightAware ADS-B
Thu 08:49:50 PM 63.4400 -176.4080 260° West 479 551 34,000  Level FlightAware ADS-B
Thu 08:50:35 PM 63.4240 -176.6160 260° West 479 551 34,000  Level FlightAware ADS-B
Thu 08:51:15 PM 63.4070 -176.8200 260° West 479 551 34,000  Level FlightAware ADS-B
Thu 08:52:14 PM 63.3850 -177.0900 260° West 480 552 34,000  Level FlightAware ADS-B
Thu 08:52:53 PM 63.3700 -177.2660 259° West 481 554 34,000  Level FlightAware ADS-B
Thu 08:53:39 PM 63.3510 -177.4920 259° West 479 551 34,000  Level FlightAware ADS-B
Thu 08:54:15 PM 63.3370 -177.6530 259° West 478 550 34,000  Level FlightAware ADS-B
Thu 08:54:56 PM 63.3180 -177.8680 259° West 480 552 34,000  Level FlightAware ADS-B
Thu 08:55:43 PM 63.2980 -178.0990 259° West 482 555 34,000  Level FlightAware ADS-B
Thu 08:56:24 PM 63.2780 -178.3090 258° West 482 555 34,000  Level FlightAware ADS-B
Thu 08:57:06 PM 63.2610 -178.4930 258° West 481 554 34,000  Level FlightAware ADS-B
Thu 08:57:46 PM 63.2430 -178.6870 258° West 483 556 34,000  Level FlightAware ADS-B
Thu 08:58:31 PM 63.2220 -178.9080 258° West 485 558 34,000  Level FlightAware ADS-B
Thu 08:59:13 PM 63.2010 -179.1180 258° West 487 560 34,000  Level FlightAware ADS-B
Thu 08:59:52 PM 63.1830 -179.3040 258° West 486 559 34,000  Level FlightAware ADS-B
Thu 09:00:34 PM 63.1630 -179.5040 258° West 485 558 34,000  Level FlightAware ADS-B
Thu 09:01:27 PM 63.1380 -179.7460 257° West 486 559 34,000  Level FlightAware ADS-B
Thu 09:02:15 PM 63.1120 -179.9950 257° West 487 560 34,000  Level FlightAware ADS-B
Thu 09:02:55 PM 63.0910 179.8090 257° West 488 562 34,000  Level FlightAware ADS-B
Thu 09:03:38 PM 63.0700 179.6230 256° West 488 562 34,000  Level FlightAware ADS-B
Thu 09:04:23 PM 63.0440 179.3950 256° West 488 562 34,000  Level FlightAware ADS-B
Thu 09:04:57 PM 63.0280 179.2590 256° West 487 560 34,000  Level FlightAware ADS-B
Thu 09:06:22 PM 62.9730 178.8680 253° West 486 559 34,000  Level FlightAware ADS-B
Thu 09:08:47 PM 62.8810 178.2240 253° West 483 556 34,000  Level FlightAware ADS-B
Thu 09:09:28 PM 62.8570 178.0620 252° West 486 559 34,000  Level FlightAware ADS-B
Thu 09:10:08 PM 62.8270 177.8540 253° West 488 562 34,000  Level FlightAware ADS-B
Thu 09:10:55 PM 62.7970 177.6530 252° West 490 564 34,000  Level FlightAware ADS-B
Thu 09:11:37 PM 62.7650 177.4430 252° West 489 563 34,000  Level FlightAware ADS-B
Thu 09:12:14 PM 62.7370 177.2620 251° West 487 560 34,000  Level FlightAware ADS-B
Thu 09:12:59 PM 62.7080 177.0690 252° West 488 562 34,000  Level FlightAware ADS-B
Thu 09:13:40 PM 62.6760 176.8670 251° West 488 562 34,000  Level FlightAware ADS-B
Thu 09:14:23 PM 62.6450 176.6720 251° West 489 563 34,000  Level FlightAware ADS-B
Thu 09:15:04 PM 62.6110 176.4530 251° West 488 562 34,000  Level FlightAware ADS-B
Thu 09:15:46 PM 62.5790 176.2590 250° West 489 563 34,000  Level FlightAware ADS-B
Thu 09:16:30 PM 62.5450 176.0500 251° West 491 565 34,000  Level FlightAware ADS-B
Thu 09:17:11 PM 62.5140 175.8650 250° West 490 564 34,000  Level FlightAware ADS-B
Thu 09:17:50 PM 62.4830 175.6780 250° West 493 567 34,000  Level FlightAware ADS-B
Thu 09:18:37 PM 62.4530 175.4970 250° West 491 565 34,000  Level FlightAware ADS-B
Thu 09:19:13 PM 62.4230 175.3250 249° West 490 564 34,000  Level FlightAware ADS-B
Thu 09:19:53 PM 62.3930 175.1450 250° West 487 560 34,000  Level FlightAware ADS-B
Thu 09:21:02 PM 62.3460 174.8770 249° West 487 560 34,000  Level FlightAware ADS-B
Thu 09:21:49 PM 62.3090 174.6640 250° West 487 560 34,000  Level FlightAware ADS-B
Thu 09:22:30 PM 62.2770 174.4850 249° West 486 559 34,000  Level FlightAware ADS-B
Thu 09:23:11 PM 62.2510 174.3420 249° West 486 559 34,000  Level FlightAware ADS-B
Thu 09:23:52 PM 62.2350 174.2510 249° West 484 557 34,000  Level FlightAware ADS-B
Thu 09:26:00 PM 62.1268 173.6806 248° West  Level FlightAware Approximate
Thu 09:27:00 PM 62.0752 173.4146 248° West  Level FlightAware Approximate
Thu 09:28:00 PM 62.0232 173.1495 247° West  Level FlightAware Approximate
Thu 09:29:00 PM 61.9706 172.8854 247° West  Level FlightAware Approximate
Thu 09:29:09 PM 61.9780 172.8880 247° West 485 558 34,000  Level FlightAware ADS-B
Thu 09:29:46 PM 61.9510 172.7500 247° West 485 558 34,000  Level FlightAware ADS-B
Thu 09:30:22 PM 61.9240 172.6150 247° West 485 558 34,000  Level FlightAware ADS-B
Thu 09:31:11 PM 61.8870 172.4330 247° West 485 558 34,000  Level FlightAware ADS-B
Thu 09:31:47 PM 61.8610 172.2990 248° West 485 558 34,000  Level FlightAware ADS-B
Thu 09:32:35 PM 61.8250 172.1200 247° West 485 558 34,000  Level FlightAware ADS-B
Thu 09:33:12 PM 61.7970 171.9830 247° West 485 558 34,000  Level FlightAware ADS-B
Thu 09:34:00 PM 61.7610 171.8040 247° West 485 558 34,000  Level FlightAware ADS-B
Thu 09:34:36 PM 61.7350 171.6710 248° West 485 558 34,000  Level FlightAware ADS-B
Thu 09:35:22 PM 61.7000 171.5000 247° West 485 558 34,000  Level FlightAware ADS-B
Thu 09:35:59 PM 61.6730 171.3630 247° West 485 558 34,000  Level FlightAware ADS-B
Thu 09:36:49 PM 61.6350 171.1790 247° West 485 558 34,000  Level FlightAware ADS-B
Thu 09:37:26 PM 61.6080 171.0420 248° West 485 558 34,000  Level FlightAware ADS-B
Thu 09:38:13 PM 61.5730 170.8690 247° West 485 558 34,000  Level FlightAware ADS-B
Thu 09:40:00 PM 61.4699 170.4140 245° Southwest  Level FlightAware Approximate
Thu 09:41:00 PM 61.4114 170.1601 244° Southwest  Level FlightAware Approximate
Thu 09:42:00 PM 61.3525 169.9073 244° Southwest  Level FlightAware Approximate
Thu 09:43:00 PM 61.2931 169.6553 244° Southwest  Level FlightAware Approximate
Thu 09:44:00 PM 61.2332 169.4044 244° Southwest  Level FlightAware Approximate
Thu 09:45:00 PM 61.1728 169.1543 243° Southwest  Level FlightAware Approximate
Thu 09:46:00 PM 61.1120 168.9053 243° Southwest  Level FlightAware Approximate
Thu 09:47:00 PM 61.0508 168.6572 243° Southwest  Level FlightAware Approximate
Thu 09:48:00 PM 60.9891 168.4101 243° Southwest  Level FlightAware Approximate
Thu 09:49:00 PM 60.9269 168.1639 243° Southwest  Level FlightAware Approximate
Thu 09:50:00 PM 60.8643 167.9187 242° Southwest  Level FlightAware Approximate
Thu 09:51:00 PM 60.8013 167.6745 242° Southwest  Level FlightAware Approximate
Thu 09:52:00 PM 60.7378 167.4312 242° Southwest  Level FlightAware Approximate
Thu 09:53:00 PM 60.6738 167.1888 242° Southwest  Level FlightAware Approximate
Thu 09:54:00 PM 60.6095 166.9475 242° Southwest  Level FlightAware Approximate
Thu 09:55:00 PM 60.5447 166.7071 241° Southwest  Level FlightAware Approximate
Thu 09:56:00 PM 60.4794 166.4677 241° Southwest  Level FlightAware Approximate
Thu 09:57:00 PM 60.4138 166.2292 241° Southwest  Level FlightAware Approximate
Thu 09:58:00 PM 60.3469 165.9922 231° Southwest  Level FlightAware Approximate
Thu 09:59:00 PM 60.2627 165.7799 231° Southwest  Level FlightAware Approximate
Thu 10:00:00 PM 60.1782 165.5688 231° Southwest  Level FlightAware Approximate
Thu 10:01:00 PM 60.0934 165.3587 231° Southwest  Level FlightAware Approximate
Thu 10:02:00 PM 60.0082 165.1497 231° Southwest  Level FlightAware Approximate
Thu 10:03:00 PM 59.9226 164.9417 231° Southwest  Level FlightAware Approximate
Thu 10:04:00 PM 59.8368 164.7349 231° Southwest  Level FlightAware Approximate
Thu 10:05:00 PM 59.7506 164.5291 230° Southwest  Level FlightAware Approximate
Thu 10:06:00 PM 59.6642 164.3243 230° Southwest  Level FlightAware Approximate
Thu 10:07:00 PM 59.5796 164.1259 230° Southwest  Level FlightAware Approximate
Thu 10:08:00 PM 59.4948 163.9285 230° Southwest  Level FlightAware Approximate
Thu 10:09:00 PM 59.4096 163.7321 230° Southwest  Level FlightAware Approximate
Thu 10:10:00 PM 59.3242 163.5367 229° Southwest  Level FlightAware Approximate
Thu 10:11:00 PM 59.2384 163.3422 229° Southwest  Level FlightAware Approximate
Thu 10:12:00 PM 59.1524 163.1487 229° Southwest  Level FlightAware Approximate
Thu 10:13:00 PM 59.0661 162.9562 229° Southwest  Level FlightAware Approximate
Thu 10:14:00 PM 58.9795 162.7647 229° Southwest  Level FlightAware Approximate
Thu 10:15:00 PM 58.8927 162.5741 229° Southwest  Level FlightAware Approximate
Thu 10:16:00 PM 58.8055 162.3845 228° Southwest  Level FlightAware Approximate
Thu 10:17:00 PM 58.7181 162.1958 228° Southwest  Level FlightAware Approximate
Thu 10:18:00 PM 58.6304 162.0081 228° Southwest  Level FlightAware Approximate
Thu 10:19:00 PM 58.5424 161.8213 228° Southwest  Level FlightAware Approximate
Thu 10:20:00 PM 58.4542 161.6355 228° Southwest  Level FlightAware Approximate
Thu 10:21:00 PM 58.3657 161.4506 228° Southwest  Level FlightAware Approximate
Thu 10:22:00 PM 58.2769 161.2666 228° Southwest  Level FlightAware Approximate
Thu 10:23:00 PM 58.1879 161.0835 227° Southwest  Level FlightAware Approximate
Thu 10:24:00 PM 58.0986 160.9014 227° Southwest  Level FlightAware Approximate
Thu 10:25:00 PM 58.0091 160.7202 227° Southwest  Level FlightAware Approximate
Thu 10:26:00 PM 57.9193 160.5398 227° Southwest  Level FlightAware Approximate
Thu 10:27:00 PM 57.8292 160.3604 227° Southwest  Level FlightAware Approximate
Thu 10:28:00 PM 57.7389 160.1819 227° Southwest  Level FlightAware Approximate
Thu 10:29:00 PM 57.6483 160.0042 226° Southwest  Level FlightAware Approximate
Thu 10:30:00 PM 57.5575 159.8275 226° Southwest  Level FlightAware Approximate
Thu 10:31:00 PM 57.4665 159.6516 226° Southwest  Level FlightAware Approximate
Thu 10:32:00 PM 57.3752 159.4766 226° Southwest  Level FlightAware Approximate
Thu 10:33:00 PM 57.2836 159.3025 226° Southwest  Level FlightAware Approximate
Thu 10:34:00 PM 57.1918 159.1292 226° Southwest  Level FlightAware Approximate
Thu 10:35:00 PM 57.0998 158.9568 226° Southwest  Level FlightAware Approximate
Thu 10:36:00 PM 57.0076 158.7853 225° Southwest  Level FlightAware Approximate
Thu 10:37:00 PM 56.9151 158.6146 225° Southwest  Level FlightAware Approximate
Thu 10:38:00 PM 56.8223 158.4447 225° Southwest  Level FlightAware Approximate
Thu 10:39:00 PM 56.7294 158.2757 225° Southwest  Level FlightAware Approximate
Thu 10:40:00 PM 56.6362 158.1075 225° Southwest  Level FlightAware Approximate
Thu 10:41:00 PM 56.5428 157.9402 225° Southwest  Level FlightAware Approximate
Thu 10:42:00 PM 56.4492 157.7736 225° Southwest  Level FlightAware Approximate
Thu 10:43:00 PM 56.3553 157.6079 224° Southwest  Level FlightAware Approximate
Thu 10:44:00 PM 56.2613 157.4430 224° Southwest  Level FlightAware Approximate
Thu 10:45:00 PM 56.1670 157.2790 224° Southwest  Level FlightAware Approximate
Thu 10:46:00 PM 56.0725 157.1157 224° Southwest  Level FlightAware Approximate
Thu 10:47:00 PM 55.9778 156.9532 224° Southwest  Level FlightAware Approximate
Thu 10:48:00 PM 55.8828 156.7915 224° Southwest  Level FlightAware Approximate
Thu 10:49:00 PM 55.7877 156.6306 224° Southwest  Level FlightAware Approximate
Thu 10:50:00 PM 55.6922 156.4707 223° Southwest  Level FlightAware Approximate
Thu 10:51:00 PM 55.5954 156.3138 223° Southwest  Level FlightAware Approximate
Thu 10:52:00 PM 55.4984 156.1576 222° Southwest  Level FlightAware Approximate
Thu 10:53:00 PM 55.4028 155.9992 223° Southwest  Level FlightAware Approximate
Thu 10:54:00 PM 55.3072 155.8412 223° Southwest  Level FlightAware Approximate
Thu 10:55:00 PM 55.2114 155.6838 223° Southwest  Level FlightAware Approximate
Thu 10:56:00 PM 55.1154 155.5273 223° Southwest  Level FlightAware Approximate
Thu 10:57:00 PM 55.0192 155.3715 223° Southwest  Level FlightAware Approximate
Thu 10:58:00 PM 54.9222 155.2174 219° Southwest  Level FlightAware Approximate
Thu 10:59:00 PM 54.8209 155.0726 219° Southwest  Level FlightAware Approximate
Thu 11:00:00 PM 54.7232 154.9209 222° Southwest  Level FlightAware Approximate
Thu 11:01:00 PM 54.6254 154.7694 222° Southwest  Level FlightAware Approximate
Thu 11:02:00 PM 54.5275 154.6188 222° Southwest  Level FlightAware Approximate
Thu 11:03:00 PM 54.4294 154.4688 222° Southwest  Level FlightAware Approximate
Thu 11:04:00 PM 54.3311 154.3196 222° Southwest  Level FlightAware Approximate
Thu 11:05:00 PM 54.2327 154.1710 221° Southwest  Level FlightAware Approximate
Thu 11:06:00 PM 54.1340 154.0232 221° Southwest  Level FlightAware Approximate
Thu 11:07:00 PM 54.0352 153.8761 221° Southwest  Level FlightAware Approximate
Thu 11:08:00 PM 53.9362 153.7297 221° Southwest  Level FlightAware Approximate
Thu 11:09:00 PM 53.8370 153.5840 221° Southwest  Level FlightAware Approximate
Thu 11:10:00 PM 53.7376 153.4389 221° Southwest  Level FlightAware Approximate
Thu 11:11:00 PM 53.6381 153.2946 221° Southwest  Level FlightAware Approximate
Thu 11:12:00 PM 53.5384 153.1509 221° Southwest  Level FlightAware Approximate
Thu 11:13:00 PM 53.4385 153.0079 220° Southwest  Level FlightAware Approximate
Thu 11:14:00 PM 53.3384 152.8656 220° Southwest  Level FlightAware Approximate
Thu 11:15:00 PM 53.2382 152.7239 220° Southwest  Level FlightAware Approximate
Thu 11:16:00 PM 53.1378 152.5829 220° Southwest  Level FlightAware Approximate
Thu 11:17:00 PM 53.0373 152.4425 220° Southwest  Level FlightAware Approximate
Thu 11:18:00 PM 52.9366 152.3027 220° Southwest  Level FlightAware Approximate
Thu 11:19:00 PM 52.8358 152.1636 220° Southwest  Level FlightAware Approximate
Thu 11:20:00 PM 52.7348 152.0251 220° Southwest  Level FlightAware Approximate
Thu 11:21:00 PM 52.6336 151.8872 220° Southwest  Level FlightAware Approximate
Thu 11:22:00 PM 52.5323 151.7500 220° Southwest  Level FlightAware Approximate
Thu 11:23:00 PM 52.4308 151.6134 219° Southwest  Level FlightAware Approximate
Thu 11:24:00 PM 52.3292 151.4775 219° Southwest  Level FlightAware Approximate
Thu 11:25:00 PM 52.2274 151.3422 219° Southwest  Level FlightAware Approximate
Thu 11:26:00 PM 52.1248 151.2088 219° Southwest  Level FlightAware Approximate
Thu 11:27:00 PM 52.0221 151.0760 219° Southwest  Level FlightAware Approximate
Thu 11:28:00 PM 51.9192 150.9438 218° Southwest  Level FlightAware Approximate
Thu 11:29:00 PM 51.8162 150.8121 218° Southwest  Level FlightAware Approximate
Thu 11:30:00 PM 51.7131 150.6811 218° Southwest  Level FlightAware Approximate
Thu 11:31:00 PM 51.6098 150.5507 218° Southwest  Level FlightAware Approximate
Thu 11:32:00 PM 51.5063 150.4209 218° Southwest  Level FlightAware Approximate
Thu 11:33:00 PM 51.4027 150.2917 218° Southwest  Level FlightAware Approximate
Thu 11:34:00 PM 51.2990 150.1630 218° Southwest  Level FlightAware Approximate
Thu 11:35:00 PM 51.1951 150.0350 218° Southwest  Level FlightAware Approximate
Thu 11:36:00 PM 51.0915 149.9067 218° Southwest  Level FlightAware Approximate
Thu 11:37:00 PM 50.9879 149.7787 218° Southwest  Level FlightAware Approximate
Thu 11:38:00 PM 50.8841 149.6512 218° Southwest  Level FlightAware Approximate
Thu 11:39:00 PM 50.7802 149.5244 218° Southwest  Level FlightAware Approximate
Thu 11:40:00 PM 50.6762 149.3981 218° Southwest  Level FlightAware Approximate
Thu 11:41:00 PM 50.5720 149.2723 217° Southwest  Level FlightAware Approximate
Thu 11:42:00 PM 50.4677 149.1471 217° Southwest  Level FlightAware Approximate
Thu 11:43:00 PM 50.3633 149.0225 217° Southwest  Level FlightAware Approximate
Thu 11:44:00 PM 50.2587 148.8984 217° Southwest  Level FlightAware Approximate
Thu 11:45:00 PM 50.1540 148.7748 217° Southwest  Level FlightAware Approximate
Thu 11:46:00 PM 50.0492 148.6518 217° Southwest  Level FlightAware Approximate
Thu 11:47:00 PM 49.9442 148.5293 217° Southwest  Level FlightAware Approximate
Thu 11:48:00 PM 49.8389 148.4078 217° Southwest  Level FlightAware Approximate
Thu 11:49:00 PM 49.7333 148.2867 217° Southwest  Level FlightAware Approximate
Thu 11:50:00 PM 49.6276 148.1661 216° Southwest  Level FlightAware Approximate
Thu 11:51:00 PM 49.5218 148.0460 216° Southwest  Level FlightAware Approximate
Thu 11:52:00 PM 49.4158 147.9265 216° Southwest  Level FlightAware Approximate
Thu 11:53:00 PM 49.3097 147.8074 216° Southwest  Level FlightAware Approximate
Thu 11:54:00 PM 49.2035 147.6889 216° Southwest  Level FlightAware Approximate
Thu 11:55:00 PM 49.0971 147.5708 216° Southwest  Level FlightAware Approximate
Thu 11:56:00 PM 48.9907 147.4533 216° Southwest  Level FlightAware Approximate
Thu 11:57:00 PM 48.8841 147.3363 216° Southwest  Level FlightAware Approximate
Thu 11:58:00 PM 48.7774 147.2198 216° Southwest  Level FlightAware Approximate
Thu 11:59:00 PM 48.6706 147.1038 216° Southwest  Level FlightAware Approximate
Fri 12:00:00 AM 48.5636 146.9882 216° Southwest  Level FlightAware Approximate
Fri 12:01:00 AM 48.4566 146.8732 215° Southwest  Level FlightAware Approximate
Fri 12:02:00 AM 48.3494 146.7586 215° Southwest  Level FlightAware Approximate
Fri 12:03:00 AM 48.2422 146.6445 215° Southwest  Level FlightAware Approximate
Fri 12:04:00 AM 48.1348 146.5309 215° Southwest  Level FlightAware Approximate
Fri 12:05:00 AM 48.0273 146.4178 215° Southwest  Level FlightAware Approximate
Fri 12:06:00 AM 47.9197 146.3051 215° Southwest  Level FlightAware Approximate
Fri 12:07:00 AM 47.8120 146.1929 215° Southwest  Level FlightAware Approximate
Fri 12:08:00 AM 47.7042 146.0812 215° Southwest  Level FlightAware Approximate
Fri 12:09:00 AM 47.5962 145.9700 215° Southwest  Level FlightAware Approximate
Fri 12:10:00 AM 47.4882 145.8591 215° Southwest  Level FlightAware Approximate
Fri 12:11:00 AM 47.3800 145.7488 215° Southwest  Level FlightAware Approximate
Fri 12:11:30 AM 45.9000 144.3150 215° Southwest 526 605 34,000  Level FlightAware ADS-B
Fri 12:12:00 AM 47.2718 145.6389 215° Southwest  Level FlightAware Approximate
Fri 12:12:11 AM 45.7670 144.1940 212° Southwest 519 597 34,000  Level FlightAware ADS-B
Fri 12:12:49 AM 45.6840 144.1170 213° Southwest 519 597 34,000  Level FlightAware ADS-B
Fri 12:13:34 AM 45.5930 144.0340 213° Southwest 518 596 34,000  Level FlightAware ADS-B
Fri 12:14:14 AM 45.5100 143.9600 212° Southwest 514 592 34,000  Level FlightAware ADS-B
Fri 12:14:54 AM 45.4320 143.8880 213° Southwest 518 596 34,000  Level FlightAware ADS-B
Fri 12:17:00 AM 45.1981 143.6797 212° Southwest  Level FlightAware Approximate
Fri 12:18:00 AM 45.0848 143.5854 210° Southwest  Level FlightAware Approximate
Fri 12:18:35 AM 45.0080 143.5230 210° Southwest 501 577 34,000  Level FlightAware ADS-B
Fri 12:19:00 AM 44.9712 143.4920 210° Southwest  Level FlightAware Approximate
Fri 12:22:00 AM 44.5753 143.3542 196° South  Level Estimated
Fri 12:22:37 AM 44.5110 143.1210 196° South 483 556 34,000  Level FlightAware ADS-B
Fri 12:23:19 AM 44.4230 143.0510 210° Southwest 482 555 34,000 483 Level FlightAware ADS-B
Fri 12:24:04 AM 44.3350 142.9800 210° Southwest 482 555 34,700 1,125 Climbing FlightAware ADS-B
Fri 12:24:39 AM 44.2650 142.9250 209° Southwest 488 562 35,500 975 Climbing FlightAware ADS-B
Fri 12:25:24 AM 44.1770 142.8550 210° Southwest 483 556 36,000 345 Climbing FlightAware ADS-B
Fri 12:26:06 AM 44.0920 142.7880 210° Southwest 481 554 36,000  Level FlightAware ADS-B
Fri 12:26:51 AM 44.0040 142.7200 209° Southwest 490 564 36,000  Level FlightAware ADS-B
Fri 12:27:36 AM 43.9080 142.6650 202° Southwest 491 565 36,000  Level FlightAware ADS-B
Fri 12:28:16 AM 43.8220 142.6240 199° South 496 571 36,000  Level FlightAware ADS-B
Fri 12:28:56 AM 43.7350 142.5840 198° South 496 571 36,000  Level FlightAware ADS-B
Fri 12:29:36 AM 43.6530 142.5460 199° South 494 568 36,000  Level FlightAware ADS-B
Fri 12:30:21 AM 43.5520 142.4980 199° South 492 566 36,000  Level FlightAware ADS-B
Fri 12:31:01 AM 43.4660 142.4590 198° South 488 562 36,000  Level FlightAware ADS-B
Fri 12:31:41 AM 43.3810 142.4190 199° South 488 562 36,000  Level FlightAware ADS-B
Fri 12:32:26 AM 43.2840 142.3740 199° South 488 562 36,000  Level FlightAware ADS-B
Fri 12:33:06 AM 43.1990 142.3350 198° South 488 562 36,000  Level FlightAware ADS-B
Fri 12:33:51 AM 43.1080 142.2930 199° South 476 548 36,000  Level FlightAware ADS-B
Fri 12:34:29 AM 43.0250 142.2560 198° South 475 547 36,000  Level FlightAware ADS-B
Fri 12:35:12 AM 42.9360 142.2150 199° South 473 544 36,000  Level FlightAware ADS-B
Fri 12:36:23 AM 42.7910 142.1490 198° South 476 548 36,000  Level FlightAware ADS-B
Fri 12:37:05 AM 42.6980 142.1070 198° South 471 542 36,000  Level FlightAware ADS-B
Fri 12:38:04 AM 42.5820 142.0550 198° South 457 526 36,000  Level FlightAware ADS-B
Fri 12:38:44 AM 42.4950 142.0230 195° South 473 544 36,000  Level FlightAware ADS-B
Fri 12:39:28 AM 42.4000 141.9960 192° South 476 548 36,000  Level FlightAware ADS-B
Fri 12:40:08 AM 42.3130 141.9770 189° South 474 545 36,000  Level FlightAware ADS-B
Fri 12:41:05 AM 42.1880 141.9520 188° South 473 544 36,000  Level FlightAware ADS-B
Fri 12:41:43 AM 42.1030 141.9350 188° South 484 557 36,000  Level FlightAware ADS-B
Fri 12:42:25 AM 42.0100 141.9170 188° South 474 545 36,000  Level FlightAware ADS-B
Fri 12:43:11 AM 41.9100 141.8980 188° South 471 542 36,000  Level FlightAware ADS-B
Fri 12:43:52 AM 41.8180 141.8800 188° South 471 542 36,000  Level FlightAware ADS-B
Fri 12:45:55 AM 41.5470 141.8270 177° South 475 547 36,000  Level FlightAware ADS-B
Fri 12:46:00 AM 41.5435 141.8063 177° South  Level Estimated
Fri 12:47:08 AM 41.3860 141.7960 188° South 474 545 36,000  Level FlightAware ADS-B
Fri 12:47:55 AM 41.2840 141.7760 188° South 474 545 36,000  Level FlightAware ADS-B
Fri 12:48:33 AM 41.1990 141.7600 188° South 474 545 36,000  Level FlightAware ADS-B
Fri 12:49:13 AM 41.1110 141.7430 188° South 473 544 36,000  Level FlightAware ADS-B
Fri 12:49:58 AM 41.0120 141.7240 188° South 473 544 36,000  Level FlightAware ADS-B
Fri 12:50:40 AM 40.9190 141.7070 188° South 474 545 36,000  Level FlightAware ADS-B
Fri 12:51:21 AM 40.8340 141.6900 189° South 483 556 36,000  Level FlightAware ADS-B
Fri 12:52:00 AM 40.7410 141.6730 188° South 484 557 36,000  Level FlightAware ADS-B
Fri 12:52:46 AM 40.6410 141.6540 188° South 483 556 36,000  Level FlightAware ADS-B
Fri 12:53:30 AM 40.5420 141.6350 188° South 484 557 36,000  Level FlightAware ADS-B
Fri 12:54:05 AM 40.4670 141.6210 188° South 483 556 36,000  Level FlightAware ADS-B
Fri 12:54:45 AM 40.3780 141.6040 188° South 474 545 36,000  Level FlightAware ADS-B
Fri 12:55:28 AM 40.2820 141.5870 188° South 470 541 36,000  Level FlightAware ADS-B
Fri 12:56:24 AM 40.1600 141.5640 188° South 469 540 36,000  Level FlightAware ADS-B
Fri 12:57:12 AM 40.0550 141.5440 188° South 468 539 36,000  Level FlightAware ADS-B
Fri 12:57:54 AM 39.9620 141.5270 188° South 467 537 36,000  Level FlightAware ADS-B
Fri 12:58:36 AM 39.8710 141.5100 188° South 474 545 36,000  Level FlightAware ADS-B
Fri 12:59:12 AM 39.7930 141.4960 188° South 474 545 36,000  Level FlightAware ADS-B
Fri 12:59:56 AM 39.6980 141.4780 188° South 467 537 36,000  Level FlightAware ADS-B
Fri 01:01:11 AM 39.5310 141.4480 188° South 472 543 36,000  Level FlightAware ADS-B
Fri 01:01:47 AM 39.4550 141.4340 188° South 469 540 36,000  Level FlightAware ADS-B
Fri 01:02:34 AM 39.3500 141.4150 188° South 468 539 36,000  Level FlightAware ADS-B
Fri 01:03:17 AM 39.2570 141.3980 188° South 457 526 36,000  Level FlightAware ADS-B
Fri 01:03:57 AM 39.1720 141.3830 188° South 457 526 36,000  Level FlightAware ADS-B
Fri 01:04:39 AM 39.0840 141.3670 188° South 456 525 36,000  Level FlightAware ADS-B
Fri 01:05:19 AM 39.0020 141.3520 188° South 455 524 36,000  Level FlightAware ADS-B
Fri 01:05:57 AM 38.9210 141.3370 188° South 452 520 36,000  Level FlightAware ADS-B
Fri 01:06:56 AM 38.8030 141.3160 188° South 454 522 36,000  Level FlightAware ADS-B
Fri 01:07:42 AM 38.7010 141.2980 188° South 453 521 36,000  Level FlightAware ADS-B
Fri 01:08:22 AM 38.6180 141.2830 188° South 453 521 36,000  Level FlightAware ADS-B
Fri 01:09:07 AM 38.5240 141.2670 188° South 451 519 36,000  Level FlightAware ADS-B
Fri 01:09:47 AM 38.4430 141.2520 188° South 452 520 36,000  Level FlightAware ADS-B
Fri 01:10:27 AM 38.3570 141.2370 188° South 452 520 36,000  Level FlightAware ADS-B
Fri 01:11:39 AM 38.2090 141.2110 188° South 452 520 36,000  Level FlightAware ADS-B
Fri 01:12:24 AM 38.1150 141.1940 188° South 441 507 36,000 -141 Level FlightAware ADS-B
Fri 01:13:04 AM 38.0340 141.1800 188° South 438 504 35,800 -825 Descending FlightAware ADS-B
Fri 01:13:44 AM 37.9520 141.1650 188° South 443 510 34,900 -1,275 Descending FlightAware ADS-B
Fri 01:14:24 AM 37.8740 141.1390 195° South 423 487 34,100 -771 Descending FlightAware ADS-B
Fri 01:14:54 AM 37.8170 141.1160 198° South 426 490 34,000 -776 Descending FlightAware ADS-B
Fri 01:16:20 AM 37.6660 141.0560 197° South 468 539 32,600 -1,500 Descending FlightAware ADS-B
Fri 01:17:14 AM 37.5330 141.0040 197° South 452 520 30,500 -2,170 Descending FlightAware ADS-B
Fri 01:17:54 AM 37.4550 140.9740 197° South 439 505 29,200 -1,906 Descending FlightAware ADS-B
Fri 01:18:39 AM 37.3670 140.9400 197° South 436 502 27,800 -1,906 Descending FlightAware ADS-B
Fri 01:19:19 AM 37.2880 140.9090 197° South 441 507 26,500 -1,867 Descending FlightAware ADS-B
Fri 01:20:09 AM 37.1910 140.8710 197° South 441 507 25,000 -1,832 Descending FlightAware ADS-B
Fri 01:20:54 AM 37.1040 140.8380 197° South 421 484 23,600 -1,835 Descending FlightAware ADS-B
Fri 01:21:34 AM 37.0290 140.8090 197° South 419 482 22,400 -1,765 Descending FlightAware ADS-B
Fri 01:22:19 AM 36.9450 140.7760 197° South 418 481 21,100 -1,765 Descending FlightAware ADS-B
Fri 01:22:59 AM 36.8710 140.7470 197° South 420 483 19,900 -1,835 Descending FlightAware ADS-B
Fri 01:23:44 AM 36.7890 140.7160 197° South 404 465 18,500 -1,765 Descending FlightAware ADS-B
Fri 01:24:24 AM 36.7190 140.6890 197° South 386 444 17,400 -1,519 Descending FlightAware ADS-B
Fri 01:25:03 AM 36.6590 140.6660 197° South 390 449 16,500 -1,533 Descending FlightAware ADS-B
Fri 01:25:54 AM 36.5640 140.6300 197° South 372 428 15,100 -989 Descending FlightAware ADS-B
Fri 01:26:34 AM 36.4980 140.6050 197° South 369 425 15,000 -456 Descending FlightAware ADS-B
Fri 01:27:13 AM 36.4320 140.5800 197° South 371 427 14,500 -643 Descending FlightAware ADS-B
Fri 01:27:58 AM 36.3570 140.5520 197° South 373 429 14,100 -706 Descending FlightAware ADS-B
Fri 01:28:38 AM 36.2900 140.5330 193° South 361 415 13,500 -1,412 Descending FlightAware ADS-B
Fri 01:29:23 AM 36.2170 140.5150 191° South 341 392 12,100 -1,800 Descending FlightAware ADS-B
Fri 01:29:58 AM 36.1630 140.5020 191° South 325 374 11,100 -1,185 Descending FlightAware ADS-B
Fri 01:30:44 AM 36.1000 140.4870 191° South 282 325 10,500 -1,352 Descending FlightAware ADS-B
Fri 01:31:09 AM 36.0680 140.4790 191° South 277 319 9,500 -2,280 Descending FlightAware ADS-B
Fri 01:31:34 AM 36.0390 140.4720 191° South 278 320 8,600 -2,348 Descending FlightAware ADS-B
Fri 01:31:55 AM 36.0090 140.4590 199° South 274 315 7,700 -2,204 Descending FlightAware ADS-B
Fri 01:32:23 AM 35.9920 140.4310 233° Southwest 268 308 6,800 -2,400 Descending FlightAware ADS-B
Fri 01:32:45 AM 35.9830 140.3930 254° West 270 311 5,700 -2,556 Descending FlightAware ADS-B
Fri 01:33:17 AM 35.9740 140.3450 257° West 263 303 4,500 -2,286 Descending FlightAware ADS-B
Fri 01:33:48 AM 35.9650 140.3010 256° West 265 305 3,300 -1,714 Descending FlightAware ADS-B
Fri 01:34:13 AM 35.9500 140.2710 238° Southwest 229 264 2,900 -649 Descending FlightAware ADS-B
Fri 01:34:25 AM 35.9380 140.2640 205° Southwest 203 234 2,900  Level FlightAware ADS-B
Fri 01:35:23 AM 35.8960 140.2800 163° South 158 182 2,900 -273 Level FlightAware ADS-B
Fri 01:35:53 AM 35.8770 140.2940 149° Southeast 158 182 2,500 -778 Descending FlightAware ADS-B
Fri 01:36:17 AM 35.8630 140.3040 150° Southeast 157 181 2,200 -857 Descending FlightAware ADS-B
Fri 01:36:35 AM 35.8510 140.3130 149° Southeast 154 177 1,900 -828 Descending FlightAware ADS-B
Fri 01:37:15 AM 35.8270 140.3300 150° Southeast 147 169 1,400 -667 Descending FlightAware ADS-B
Fri 01:37:38 AM 35.8170 140.3380 147° Southeast 136 157 1,200 -522 Descending FlightAware ADS-B
Fri 01:40:00 AM 35.7647 140.3864 253° West  Level Estimated
Fri 01:41:00 AM 35.7647 140.3864 253° West  Level Estimated
Fri 01:42:00 AM 35.7647 140.3864 253° West  Level Estimated
Fri 01:43:00 AM 35.7647 140.3864 253° West  Level Estimated
Fri 01:44:00 AM 35.7647 140.3864 253° West  Level Estimated
Fri 01:45:00 AM 35.7647 140.3864 253° West  Level Estimated
Fri 01:46:00 AM 35.7647 140.3864 253° West  Level Estimated
Fri 01:47:00 AM 35.7647 140.3864 253° West  Level Estimated
Fri 01:48:00 AM 35.7647 140.3864 253° West  Level Estimated
Fri 01:49:00 AM 35.7647 140.3864 253° West  Level Estimated
Fri 01:50:00 AM 35.7647 140.3864 253° West  Level Estimated

Login

Don't have an account? Register now (free) for customized features, flight alerts, and more!